createdAt,value
2019-03-23T00:01:47.496Z,117.22
2019-03-23T00:04:15.991Z,133.97
2019-03-23T00:06:44.524Z,123.02
2019-03-23T00:09:13.043Z,120.42
2019-03-23T00:11:41.532Z,116.12
2019-03-23T00:14:10.056Z,139.07
2019-03-23T00:16:38.548Z,155.32
2019-03-23T00:19:07.091Z,166.40
2019-03-23T00:21:35.589Z,146.35
2019-03-23T00:24:04.164Z,131.72
2019-03-23T00:26:32.690Z,129.53
2019-03-23T00:29:01.183Z,158.18
2019-03-23T00:31:29.709Z,138.90
2019-03-23T00:33:58.206Z,133.47
2019-03-23T00:36:26.712Z,130.80
2019-03-23T00:38:55.232Z,125.90
2019-03-23T00:41:23.724Z,111.68
2019-03-23T00:43:52.245Z,117.60
2019-03-23T00:46:20.735Z,116.35
2019-03-23T00:48:49.266Z,127.42
2019-03-23T00:51:17.791Z,144.60
2019-03-23T00:53:46.280Z,154.40
2019-03-23T00:56:17.463Z,151.72
2019-03-23T00:58:45.998Z,191.35
2019-03-23T01:01:14.668Z,174.50
2019-03-23T01:03:43.196Z,158.87
2019-03-23T01:06:11.724Z,155.72
2019-03-23T01:08:40.223Z,146.07
2019-03-23T01:11:08.726Z,146.90
2019-03-23T01:13:37.298Z,150.00
2019-03-23T01:16:05.859Z,155.97
2019-03-23T01:18:34.553Z,139.92
2019-03-23T01:21:03.054Z,142.80
2019-03-23T01:23:31.564Z,126.67
2019-03-23T01:26:00.101Z,116.10
2019-03-23T01:28:28.660Z,124.95
2019-03-23T01:30:57.190Z,121.92
2019-03-23T01:33:25.680Z,111.75
2019-03-23T01:35:54.183Z,108.07
2019-03-23T01:38:22.760Z,110.60
2019-03-23T01:40:51.282Z,101.35
2019-03-23T01:43:19.782Z,97.30
2019-03-23T01:45:48.282Z,98.75
2019-03-23T01:48:16.795Z,95.55
2019-03-23T01:50:45.360Z,93.92
2019-03-23T01:53:13.854Z,93.33
2019-03-23T01:55:42.362Z,97.27
2019-03-23T01:58:10.925Z,104.30
2019-03-23T02:00:39.415Z,104.70
2019-03-23T02:03:07.930Z,98.00
2019-03-23T02:05:36.417Z,107.10
2019-03-23T02:08:05.010Z,108.07
2019-03-23T02:10:33.524Z,112.57
2019-03-23T02:13:01.997Z,115.52
2019-03-23T02:15:30.496Z,130.32
2019-03-23T02:17:58.979Z,137.90
2019-03-23T02:20:27.664Z,120.60
2019-03-23T02:22:56.151Z,136.57
2019-03-23T02:25:24.637Z,137.60
2019-03-23T02:27:53.130Z,135.95
2019-03-23T02:30:21.644Z,132.63
2019-03-23T02:32:50.166Z,132.37
2019-03-23T02:35:18.713Z,129.45
2019-03-23T02:37:47.199Z,126.12
2019-03-23T02:40:15.701Z,128.47
2019-03-23T02:42:44.217Z,127.00
2019-03-23T02:45:13.451Z,123.78
2019-03-23T02:47:41.977Z,111.30
2019-03-23T02:50:11.103Z,114.77
2019-03-23T02:52:39.649Z,113.92
2019-03-23T02:55:11.809Z,115.77
2019-03-23T02:57:40.348Z,124.82
2019-03-23T03:00:13.797Z,123.97
2019-03-23T03:02:42.315Z,120.72
2019-03-23T03:05:11.229Z,133.18
2019-03-23T03:07:43.250Z,135.65
2019-03-23T03:10:13.348Z,145.07
2019-03-23T03:12:41.844Z,145.47
2019-03-23T03:15:10.638Z,153.38
2019-03-23T03:17:39.157Z,152.02
2019-03-23T03:20:10.058Z,160.05
2019-03-23T03:22:38.542Z,154.33
2019-03-23T03:25:08.403Z,150.10
2019-03-23T03:27:36.964Z,152.57
2019-03-23T03:30:10.986Z,176.65
2019-03-23T03:32:39.599Z,144.68
2019-03-23T03:35:08.467Z,129.75
2019-03-23T03:37:36.951Z,131.47
2019-03-23T03:40:09.086Z,130.60
2019-03-23T03:42:37.680Z,140.18
2019-03-23T03:45:07.812Z,139.15
2019-03-23T03:47:36.330Z,137.30
2019-03-23T03:50:09.053Z,136.47
2019-03-23T03:52:37.656Z,135.50
2019-03-23T03:55:07.753Z,145.35
2019-03-23T03:57:36.369Z,136.05
2019-03-23T04:00:07.518Z,130.30
2019-03-23T04:02:36.034Z,125.72
2019-03-23T04:05:05.651Z,125.05
2019-03-23T04:07:34.150Z,128.93
2019-03-23T04:10:02.717Z,141.45
2019-03-23T04:12:31.245Z,144.55
2019-03-23T04:14:59.699Z,161.45
2019-03-23T04:17:28.191Z,153.35
2019-03-23T04:19:56.690Z,143.15
2019-03-23T04:22:25.191Z,149.65
2019-03-23T04:24:53.675Z,150.22
2019-03-23T04:27:22.193Z,137.30
2019-03-23T04:29:50.689Z,145.82
2019-03-23T04:32:19.187Z,153.18
2019-03-23T04:34:47.673Z,173.20
2019-03-23T04:37:16.187Z,149.87
2019-03-23T04:39:44.711Z,164.52
2019-03-23T04:42:13.211Z,167.93
2019-03-23T04:44:41.695Z,191.90
2019-03-23T04:47:10.216Z,202.95
2019-03-23T04:49:38.720Z,211.55
2019-03-23T04:52:07.232Z,200.30
2019-03-23T04:54:38.848Z,191.62
2019-03-23T04:57:06.741Z,152.57
2019-03-23T04:59:35.244Z,151.85
2019-03-23T05:02:04.101Z,153.57
2019-03-23T05:04:32.598Z,181.65
2019-03-23T05:07:01.081Z,188.72
2019-03-23T05:09:29.635Z,149.32
2019-03-23T05:11:58.119Z,150.68
2019-03-23T05:14:26.610Z,136.05
2019-03-23T05:16:55.112Z,142.62
2019-03-23T05:19:23.623Z,146.00
2019-03-23T05:21:52.151Z,148.07
2019-03-23T05:24:20.640Z,157.57
2019-03-23T05:26:49.221Z,160.37
2019-03-23T05:29:17.715Z,181.22
2019-03-23T05:31:46.197Z,196.75
2019-03-23T05:34:14.683Z,176.93
2019-03-23T05:36:43.184Z,155.18
2019-03-23T05:39:11.711Z,209.55
2019-03-23T05:41:40.199Z,174.40
2019-03-23T05:44:08.690Z,145.92
2019-03-23T05:46:37.207Z,141.57
2019-03-23T05:49:05.702Z,142.62
2019-03-23T05:51:34.210Z,145.60
2019-03-23T05:54:02.696Z,210.90
2019-03-23T05:56:31.227Z,206.15
2019-03-23T05:58:59.712Z,230.45
2019-03-23T06:01:28.198Z,130.20
2019-03-23T06:03:56.813Z,134.87
2019-03-23T06:06:25.299Z,137.32
2019-03-23T06:08:55.240Z,142.00
2019-03-23T06:11:25.004Z,131.22
2019-03-23T06:13:53.498Z,141.22
2019-03-23T06:16:22.047Z,149.42
2019-03-23T06:18:50.566Z,150.47
2019-03-23T06:21:19.081Z,144.17
2019-03-23T06:23:47.570Z,120.28
2019-03-23T06:26:16.094Z,131.90
2019-03-23T06:28:44.576Z,154.20
2019-03-23T06:31:13.098Z,142.00
2019-03-23T06:33:41.588Z,131.87
2019-03-23T06:36:10.122Z,135.28
2019-03-23T06:38:38.620Z,107.20
2019-03-23T06:41:07.133Z,119.17
2019-03-23T06:43:35.659Z,129.85
2019-03-23T06:46:04.212Z,96.57
2019-03-23T06:48:32.730Z,100.72
2019-03-23T06:51:03.203Z,132.87
2019-03-23T06:53:31.436Z,125.50
2019-03-23T06:55:59.951Z,106.65
2019-03-23T06:58:28.455Z,104.45
2019-03-23T07:00:56.955Z,134.40
2019-03-23T07:03:25.444Z,161.18
2019-03-23T07:05:53.958Z,127.10
2019-03-23T07:08:31.515Z,120.20
2019-03-23T07:10:52.663Z,117.13
2019-03-23T07:13:21.181Z,103.95
2019-03-23T07:15:49.665Z,105.95
2019-03-23T07:18:18.193Z,105.25
2019-03-23T07:20:46.684Z,104.80
2019-03-23T07:23:16.819Z,98.85
2019-03-23T07:25:45.299Z,102.70
2019-03-23T07:28:13.833Z,107.27
2019-03-23T07:30:42.401Z,109.00
2019-03-23T07:33:10.887Z,114.10
2019-03-23T07:35:39.389Z,108.40
2019-03-23T07:38:07.874Z,109.45
2019-03-23T07:40:36.468Z,111.80
2019-03-23T07:43:05.047Z,117.40
2019-03-23T07:45:33.537Z,102.78
2019-03-23T07:48:02.038Z,108.87
2019-03-23T07:50:30.541Z,115.15
2019-03-23T07:52:59.056Z,100.95
2019-03-23T07:55:27.543Z,95.87
2019-03-23T07:57:56.066Z,121.10
2019-03-23T08:00:24.566Z,99.17
2019-03-23T08:02:53.092Z,103.32
2019-03-23T08:05:21.663Z,100.47
2019-03-23T08:07:50.155Z,103.65
2019-03-23T08:10:32.179Z,116.70
2019-03-23T08:15:29.356Z,129.32
2019-03-23T08:17:58.035Z,151.97
2019-03-23T08:20:26.691Z,115.25
2019-03-23T08:22:55.374Z,126.78
2019-03-23T08:25:23.903Z,185.63
2019-03-23T08:27:52.471Z,200.72
2019-03-23T08:30:20.972Z,142.05
2019-03-23T08:32:49.528Z,126.40
2019-03-23T08:35:18.388Z,111.90
2019-03-23T08:37:46.913Z,115.30
2019-03-23T08:40:15.399Z,95.17
2019-03-23T08:42:43.902Z,122.75
2019-03-23T08:45:12.674Z,98.92
2019-03-23T08:47:41.170Z,138.72
2019-03-23T08:50:09.944Z,105.15
2019-03-23T08:52:38.472Z,118.47
2019-03-23T08:55:07.274Z,119.10
2019-03-23T08:57:35.770Z,102.45
2019-03-23T09:00:07.934Z,111.00
2019-03-23T09:02:36.477Z,119.02
2019-03-23T09:05:06.233Z,98.47
2019-03-23T09:07:34.798Z,101.90
2019-03-23T09:10:05.159Z,102.47
2019-03-23T09:12:33.658Z,110.28
2019-03-23T09:15:02.192Z,107.30
2019-03-23T09:17:30.681Z,109.57
2019-03-23T09:19:59.225Z,117.08
2019-03-23T09:22:27.834Z,109.27
2019-03-23T09:24:57.446Z,104.92
2019-03-23T09:27:25.947Z,96.30
2019-03-23T09:29:56.460Z,102.07
2019-03-23T09:32:24.998Z,112.30
2019-03-23T09:34:53.536Z,108.63
2019-03-23T09:37:22.052Z,100.70
2019-03-23T09:39:50.578Z,105.80
2019-03-23T09:42:19.110Z,106.80
2019-03-23T09:44:47.704Z,107.32
2019-03-23T09:47:17.619Z,107.52
2019-03-23T09:49:46.146Z,95.47
2019-03-23T09:52:16.615Z,113.45
2019-03-23T09:54:45.418Z,102.27
2019-03-23T09:57:13.932Z,100.95
2019-03-23T09:59:42.487Z,119.22
2019-03-23T10:02:11.025Z,100.75
2019-03-23T10:04:39.519Z,91.37
2019-03-23T10:07:08.040Z,93.30
2019-03-23T10:09:38.146Z,90.72
2019-03-23T10:12:06.648Z,84.75
2019-03-23T10:14:35.206Z,79.47
2019-03-23T10:17:03.746Z,85.53
2019-03-23T10:19:32.266Z,88.72
2019-03-23T10:22:00.794Z,98.17
2019-03-23T10:24:29.387Z,82.08
2019-03-23T10:26:57.949Z,86.53
2019-03-23T10:29:26.547Z,87.53
2019-03-23T10:31:55.821Z,87.33
2019-03-23T10:34:24.400Z,88.97
2019-03-23T10:36:53.096Z,82.88
2019-03-23T10:39:21.761Z,79.45
2019-03-23T10:41:50.267Z,77.75
2019-03-23T10:44:18.865Z,73.80
2019-03-23T10:46:47.474Z,83.75
2019-03-23T10:49:16.027Z,97.80
2019-03-23T10:51:44.572Z,83.78
2019-03-23T10:54:13.154Z,74.00
2019-03-23T10:56:41.702Z,73.65
2019-03-23T10:59:10.211Z,72.62
2019-03-23T11:01:38.730Z,69.15
2019-03-23T11:04:07.333Z,61.45
2019-03-23T11:06:35.860Z,65.40
2019-03-23T11:09:06.030Z,78.15
2019-03-23T11:11:34.556Z,64.15
2019-03-23T11:14:03.045Z,63.23
2019-03-23T11:16:31.546Z,73.10
2019-03-23T11:19:00.040Z,70.57
2019-03-23T11:21:28.531Z,60.05
2019-03-23T11:23:57.048Z,59.18
2019-03-23T11:26:28.156Z,65.90
2019-03-23T11:28:56.891Z,56.73
2019-03-23T11:31:25.381Z,51.33
2019-03-23T11:33:53.890Z,49.55
2019-03-23T11:36:22.380Z,53.73
2019-03-23T11:38:50.903Z,44.63
2019-03-23T11:41:19.433Z,54.80
2019-03-23T11:43:47.927Z,50.65
2019-03-23T11:46:17.086Z,47.73
2019-03-23T11:48:45.649Z,86.45
2019-03-23T11:51:14.156Z,84.30
2019-03-23T11:53:42.640Z,34.60
2019-03-23T11:56:11.139Z,29.00
2019-03-23T11:58:39.668Z,30.37
2019-03-23T12:01:08.146Z,46.58
2019-03-23T12:03:36.674Z,37.15
2019-03-23T12:06:05.267Z,29.90
2019-03-23T12:08:33.816Z,41.58
2019-03-23T12:11:03.275Z,69.62
2019-03-23T12:13:31.814Z,37.67
2019-03-23T12:16:00.489Z,51.88
2019-03-23T12:18:28.982Z,45.92
2019-03-23T12:20:57.509Z,47.83
2019-03-23T12:23:26.009Z,38.83
2019-03-23T12:25:55.443Z,66.67
2019-03-23T12:28:23.943Z,44.10
2019-03-23T12:30:52.511Z,35.23
2019-03-23T12:33:21.558Z,35.00
2019-03-23T12:35:50.198Z,36.15
2019-03-23T12:38:18.781Z,28.80
2019-03-23T12:40:47.273Z,31.07
2019-03-23T12:43:16.559Z,33.15
2019-03-23T12:45:45.350Z,30.02
2019-03-23T12:48:13.933Z,34.18
2019-03-23T12:50:42.415Z,41.45
2019-03-23T12:53:10.930Z,49.58
2019-03-23T12:55:39.414Z,34.73
2019-03-23T12:58:07.930Z,29.23
2019-03-23T13:00:36.422Z,34.50
2019-03-23T13:03:04.920Z,36.45
2019-03-23T13:05:33.447Z,39.70
2019-03-23T13:08:01.935Z,37.78
2019-03-23T13:10:30.520Z,41.40
2019-03-23T13:12:59.046Z,107.95
2019-03-23T13:15:27.533Z,28.73
2019-03-23T13:17:57.404Z,24.98
2019-03-23T13:20:26.015Z,102.97
2019-03-23T13:22:55.564Z,15.25
2019-03-23T13:25:24.105Z,15.78
2019-03-23T13:27:52.594Z,10.95
2019-03-23T13:30:21.111Z,7.37
2019-03-23T13:32:52.483Z,8.05
2019-03-23T13:35:21.000Z,7.40
2019-03-23T13:37:49.487Z,17.65
2019-03-23T13:40:18.031Z,8.28
2019-03-23T13:42:46.529Z,7.40
2019-03-23T13:45:17.089Z,5.78
2019-03-23T13:47:45.631Z,5.35
2019-03-23T13:50:15.823Z,7.28
2019-03-23T13:52:44.432Z,10.68
2019-03-23T13:55:24.637Z,9.55
2019-03-23T13:57:53.156Z,14.10
2019-03-23T14:00:21.645Z,10.28
2019-03-23T14:02:51.951Z,13.80
2019-03-23T14:05:20.471Z,14.85
2019-03-23T14:07:48.984Z,13.98
2019-03-23T14:10:17.496Z,12.80
2019-03-23T14:12:45.984Z,13.40
2019-03-23T14:15:14.535Z,36.00
2019-03-23T14:17:43.053Z,17.80
2019-03-23T14:20:11.677Z,15.35
2019-03-23T14:22:40.184Z,14.90
2019-03-23T14:25:08.810Z,17.23
2019-03-23T14:27:37.346Z,16.07
2019-03-23T14:30:09.383Z,15.72
2019-03-23T14:32:37.971Z,17.23
2019-03-23T14:35:07.231Z,15.60
2019-03-23T14:37:35.884Z,14.47
2019-03-23T14:40:07.925Z,12.25
2019-03-23T14:42:37.199Z,11.18
2019-03-23T14:45:08.884Z,8.25
2019-03-23T14:47:37.405Z,39.78
2019-03-23T14:50:07.033Z,10.30
2019-03-23T14:52:35.725Z,8.85
2019-03-23T14:55:04.986Z,14.25
2019-03-23T14:57:33.512Z,9.43
2019-03-23T15:00:02.033Z,19.37
2019-03-23T15:02:30.530Z,12.75
2019-03-23T15:04:59.026Z,21.90
2019-03-23T15:07:27.610Z,18.92
2019-03-23T15:09:56.103Z,29.85
2019-03-23T15:12:24.618Z,11.73
2019-03-23T15:14:53.112Z,15.53
2019-03-23T15:17:21.622Z,23.02
2019-03-23T15:19:50.126Z,8.63
2019-03-23T15:22:18.616Z,10.03
2019-03-23T15:24:47.137Z,16.87
2019-03-23T15:27:15.617Z,24.07
2019-03-23T15:29:44.146Z,15.55
2019-03-23T15:32:12.627Z,40.75
2019-03-23T15:34:41.110Z,24.05
2019-03-23T15:37:09.617Z,38.25
2019-03-23T15:39:38.099Z,13.62
2019-03-23T15:42:06.633Z,15.35
2019-03-23T15:44:35.147Z,27.45
2019-03-23T15:47:03.646Z,81.82
2019-03-23T15:49:32.161Z,50.52
2019-03-23T15:52:00.645Z,16.27
2019-03-23T15:54:29.153Z,23.40
2019-03-23T15:56:57.750Z,21.10
2019-03-23T15:59:26.263Z,19.20
2019-03-23T16:01:54.781Z,22.90
2019-03-23T16:04:23.269Z,21.73
2019-03-23T16:06:51.769Z,23.87
2019-03-23T16:09:20.292Z,105.60
2019-03-23T16:11:48.781Z,36.98
2019-03-23T16:14:17.310Z,30.85
2019-03-23T16:16:45.807Z,148.32
2019-03-23T16:19:14.535Z,71.12
2019-03-23T16:21:43.029Z,46.25
2019-03-23T16:24:11.512Z,63.80
2019-03-23T16:26:40.036Z,62.65
2019-03-23T16:29:09.669Z,67.72
2019-03-23T16:31:38.424Z,57.60
2019-03-23T16:34:06.914Z,84.65
2019-03-23T16:36:35.437Z,70.55
2019-03-23T16:39:05.104Z,84.22
2019-03-23T16:41:33.907Z,169.35
2019-03-23T16:44:02.510Z,153.90
2019-03-23T16:46:30.992Z,115.45
2019-03-23T16:49:00.401Z,172.53
2019-03-23T16:51:28.999Z,126.27
2019-03-23T16:53:57.526Z,166.73
2019-03-23T16:56:26.016Z,166.22
2019-03-23T16:58:54.604Z,174.45
2019-03-23T17:01:23.132Z,160.05
2019-03-23T17:03:51.619Z,124.90
2019-03-23T17:06:20.127Z,95.38
2019-03-23T17:08:48.611Z,71.70
2019-03-23T17:11:17.130Z,77.10
2019-03-23T17:13:45.630Z,88.78
2019-03-23T17:16:14.160Z,328.85
2019-03-23T17:18:43.191Z,629.40
2019-03-23T17:21:11.685Z,521.72
2019-03-23T17:23:40.189Z,350.43
2019-03-23T17:26:08.713Z,333.55
2019-03-23T17:28:37.201Z,275.52
2019-03-23T17:31:05.708Z,285.40
2019-03-23T17:33:34.196Z,272.02
2019-03-23T17:36:02.797Z,277.15
2019-03-23T17:38:31.287Z,238.22
2019-03-23T17:40:59.811Z,186.62
2019-03-23T17:43:28.351Z,187.75
2019-03-23T17:45:56.878Z,210.38
2019-03-23T17:48:25.375Z,243.42
2019-03-23T17:50:53.881Z,237.00
2019-03-23T17:53:22.878Z,249.50
2019-03-23T17:55:51.370Z,293.97
2019-03-23T17:58:19.895Z,317.57
2019-03-23T18:00:48.481Z,300.90
2019-03-23T18:03:21.487Z,279.45
2019-03-23T18:05:50.095Z,277.13
2019-03-23T18:08:18.667Z,265.05
2019-03-23T18:10:47.210Z,210.17
2019-03-23T18:13:16.692Z,174.02
2019-03-23T18:15:45.422Z,176.68
2019-03-23T18:18:14.252Z,192.82
2019-03-23T18:20:42.767Z,215.70
2019-03-23T18:23:11.615Z,214.20
2019-03-23T18:25:40.139Z,197.98
2019-03-23T18:28:08.622Z,210.30
2019-03-23T18:30:41.629Z,216.57
2019-03-23T18:33:10.482Z,228.37
2019-03-23T18:35:38.982Z,226.85
2019-03-23T18:38:07.747Z,253.95
2019-03-23T18:40:36.646Z,312.70
2019-03-23T18:43:06.009Z,243.97
2019-03-23T18:45:36.421Z,231.35
2019-03-23T18:48:05.534Z,234.92
2019-03-23T18:50:35.601Z,220.52
2019-03-23T18:53:04.464Z,202.68
2019-03-23T18:55:32.968Z,203.07
2019-03-23T18:58:01.487Z,244.72
2019-03-23T19:00:37.302Z,310.40
2019-03-23T19:03:06.000Z,279.38
2019-03-23T19:05:35.227Z,277.68
2019-03-23T19:08:04.173Z,277.25
2019-03-23T19:10:32.821Z,325.32
2019-03-23T19:13:01.317Z,274.05
2019-03-23T19:15:29.820Z,318.10
2019-03-23T19:17:58.379Z,258.77
2019-03-23T19:20:26.902Z,288.25
2019-03-23T19:22:55.398Z,287.00
2019-03-23T19:25:24.012Z,294.20
2019-03-23T19:27:52.587Z,282.90
2019-03-23T19:30:21.546Z,273.13
2019-03-23T19:32:50.050Z,249.60
2019-03-23T19:35:18.574Z,306.98
2019-03-23T19:37:47.088Z,260.60
2019-03-23T19:40:16.702Z,339.52
2019-03-23T19:42:45.260Z,294.13
2019-03-23T19:45:15.083Z,285.88
2019-03-23T19:47:45.980Z,271.98
2019-03-23T19:50:16.392Z,287.60
2019-03-23T19:52:44.914Z,311.73
2019-03-23T19:55:13.481Z,344.68
2019-03-23T19:57:41.989Z,343.05
2019-03-23T20:00:12.617Z,358.40
2019-03-23T20:02:41.278Z,355.32
2019-03-23T20:05:10.013Z,357.02
2019-03-23T20:07:39.200Z,367.70
2019-03-23T20:10:10.246Z,278.42
2019-03-23T20:12:40.161Z,249.97
2019-03-23T20:15:09.312Z,302.57
2019-03-23T20:17:37.973Z,296.52
2019-03-23T20:20:08.220Z,257.27
2019-03-23T20:22:36.755Z,257.67
2019-03-23T20:25:09.662Z,299.70
2019-03-23T20:27:38.196Z,289.45
2019-03-23T20:30:09.736Z,272.05
2019-03-23T20:32:38.450Z,260.23
2019-03-23T20:35:08.002Z,267.60
2019-03-23T20:37:36.507Z,242.72
2019-03-23T20:40:07.325Z,236.65
2019-03-23T20:42:35.815Z,266.25
2019-03-23T20:45:07.165Z,289.98
2019-03-23T20:47:35.671Z,270.33
2019-03-23T20:50:05.149Z,270.70
2019-03-23T20:52:33.641Z,288.30
2019-03-23T20:55:02.498Z,272.20
2019-03-23T20:57:37.346Z,265.77
2019-03-23T21:00:01.208Z,260.68
2019-03-23T21:02:29.733Z,254.65
2019-03-23T21:04:58.238Z,264.48
2019-03-23T21:07:26.743Z,258.82
2019-03-23T21:09:56.915Z,266.90
2019-03-23T21:12:27.252Z,265.82
2019-03-23T21:14:55.620Z,260.48
2019-03-23T21:17:24.144Z,262.00
2019-03-23T21:19:52.675Z,246.53
2019-03-23T21:22:21.229Z,250.95
2019-03-23T21:24:49.753Z,231.05
2019-03-23T21:27:18.250Z,223.47
2019-03-23T21:29:46.775Z,206.50
2019-03-23T21:32:15.292Z,203.83
2019-03-23T21:34:43.777Z,217.22
2019-03-23T21:37:12.282Z,214.48
2019-03-23T21:39:40.771Z,231.85
2019-03-23T21:42:09.293Z,231.30
2019-03-23T21:44:37.781Z,243.52
2019-03-23T21:47:06.282Z,225.78
2019-03-23T21:49:34.776Z,236.35
2019-03-23T21:52:03.299Z,264.52
2019-03-23T21:54:31.884Z,246.72
2019-03-23T21:57:00.414Z,246.18
2019-03-23T21:59:28.918Z,254.03
2019-03-23T22:01:57.424Z,242.55
2019-03-23T22:04:25.943Z,238.32
2019-03-23T22:06:57.226Z,250.28
2019-03-23T22:09:25.750Z,233.50
2019-03-23T22:11:54.352Z,231.40
2019-03-23T22:14:22.871Z,251.27
2019-03-23T22:16:51.396Z,248.75
2019-03-23T22:19:19.905Z,254.90
2019-03-23T22:21:48.433Z,253.35
2019-03-23T22:24:16.930Z,240.00
2019-03-23T22:26:45.452Z,240.82
2019-03-23T22:29:13.982Z,241.42
2019-03-23T22:31:42.477Z,244.25
2019-03-23T22:34:11.001Z,242.82
2019-03-23T22:36:39.487Z,248.82
2019-03-23T22:39:08.149Z,263.92
2019-03-23T22:41:36.731Z,290.07
2019-03-23T22:44:05.372Z,177.90
2019-03-23T22:46:33.863Z,166.60
2019-03-23T22:49:02.391Z,182.15
2019-03-23T22:51:30.920Z,135.80
2019-03-23T22:53:59.415Z,140.22
2019-03-23T22:56:27.921Z,114.57
2019-03-23T22:58:56.418Z,111.20
2019-03-23T23:01:25.138Z,91.63
2019-03-23T23:03:53.649Z,76.62
2019-03-23T23:06:22.271Z,69.10
2019-03-23T23:08:50.760Z,61.35
2019-03-23T23:11:19.254Z,56.33
2019-03-23T23:13:47.740Z,63.85
2019-03-23T23:16:16.789Z,66.55
2019-03-23T23:18:45.286Z,69.60
2019-03-23T23:21:13.806Z,88.58
2019-03-23T23:23:42.331Z,183.15
2019-03-23T23:26:10.861Z,101.72
2019-03-23T23:28:40.927Z,91.45
2019-03-23T23:31:09.473Z,68.05
2019-03-23T23:33:39.408Z,68.20
2019-03-23T23:36:07.965Z,70.42
2019-03-23T23:38:36.475Z,63.85
2019-03-23T23:41:05.041Z,65.97
2019-03-23T23:43:33.534Z,65.55
2019-03-23T23:46:02.021Z,66.07
2019-03-23T23:48:30.527Z,65.37
2019-03-23T23:50:59.012Z,63.05
2019-03-23T23:53:27.535Z,64.77
2019-03-23T23:55:56.020Z,62.10
2019-03-23T23:58:24.522Z,62.53
